Lake Odessa, MI

12:11 AM EDT on March 25, 2017 (GMT -0400)
(MAC) Clarksville | | Change Station
Active Advisory: Flood Advisory Active Notice: Flood Advisory

Elev 817 ft 42.85 °N, 85.24 °W | Updated 1 minute ago

Overcast
Overcast
42.5 °F
Feels Like 37 °F
N
10.0
Wind Variable Wind from East
Gusts 10.0 mph

Today
High -- | Low -- °F
--% Chance of Precip.
Yesterday
High -- | Low -- °F
Precip. -- in
Pressure 30.07 in
Visibility 10.0 miles
Clouds Scattered Clouds 1200 ft
Mostly Cloudy 4500 ft
Overcast 11000 ft
Windchill 37 °F
Dew Point 39 °F
Humidity 86%
Rainfall 0.00 in
Snow Depth Not available.
7:34 AM 7:58 PM
Waning Crescent, 11% visible
METAR KY70 250356Z AUTO 07013G18KT 10SM SCT012 BKN045 OVC110 05/02 A3007 RMK AO2 T00490019
Pressure 30.07 in
Visibility 10.0 miles
Clouds Scattered Clouds 1200 ft
Mostly Cloudy 4500 ft
Overcast 11000 ft
Windchill 37 °F
Dew Point 39 °F
Humidity 86%
Rainfall 0.00 in
Snow Depth Not available.
7:34 AM 7:58 PM
Waning Crescent, 11% visible
METAR KY70 250356Z AUTO 07013G18KT 10SM SCT012 BKN045 OVC110 05/02 A3007 RMK AO2 T00490019

Get Your Daily Forecast Email!

Thanks for signing up!

Be on the lookout for a verification email in your inbox.

You'll start receiving severe weather alerts in your inbox..

×

10-Day Weather Forecast

Almanac

Astronomy

Mar. 25, 2017 Rise Set
Actual Time
Civil Twilight
Nautical Twilight
Astronomical Twilight
Moon
Length of Visible Light
Length of Day
Tomorrow will be .
, % of the Moon is Illuminated

Today's Extremes

State Highs State Lows

Community

WunderPhotos

Upload Photos

1,962,540 photos uploaded!

WunderBlog® & News

Nearby

Air Quality

  Air Quality AQ Index Pollutant
Not available.

Snow Depth

Station Depth Elevation

Earthquake Activity

City Distance Mag. Time & Date
Minimum magnitude displayed is 2.5.

Earthquake Activity

City Distance Mag. Time & Date
Minimum magnitude displayed is 2.5.

Coastal Water Temperatures

Place Temperature

Stations

Nearby Weather Stations

Station Location Temp. Windchill Dew Point Humidity Wind Precip. Elev Updated Type
                   

Watches & Warnings

Flood Advisory
Issued: 11:01 PM EDT Mar. 24, 2017 – National Weather Service

The flood advisory continues for
the Grand River at Ionia
* until further notice.
* At 10 PM Friday the stage was 11.2 feet.
* Bankfull stage is 13.5 feet.
* Flood stage is 21.0 feet.
* Forecast, the river will rise to near 16.0 feet by early Wednesday
morning.
* Impact, at 16.0 feet... expect extensive lowland overflow to occur.


Lat... Lon 4290 8521 4296 8499 4303 8488 4297 8524